Valls, Spain
Current Conditions -  °F | °C
As of 7:00 PM on Sunday 25 Jan 2015 (Local Time) from LERS Reporting Station
Clear Clear  
Wind Chill: 52°   Ceiling: Unl
Heat Index: 52°   Visibility: 6mi
Dew Point: 21°   Wind: 15mph
Humidity: 30%   Direction: 280°W
Pressure: 30.18"   Gusts: 26mph
Location:  41.29°N, 1.25°E
Report Text: LERS 251800Z 28013G23KT 240V330 CAVOK 11/M06 Q1022
Loading
Personal Weather Stations






























Interactive Weather Map New forecast layout! Learn more

10-Day Weather Forecast

Advertisements
Track Severe Weather on mobile